createdAt,value
2018-10-07T00:00:56.740Z,83.55
2018-10-07T00:03:27.285Z,83.44
2018-10-07T00:05:56.577Z,82.95
2018-10-07T00:08:27.073Z,83.02
2018-10-07T00:10:56.149Z,83.96
2018-10-07T00:13:25.157Z,83.96
2018-10-07T00:15:54.457Z,83.45
2018-10-07T00:18:23.790Z,83.87
2018-10-07T00:20:53.121Z,83.88
2018-10-07T00:23:22.422Z,84.25
2018-10-07T00:25:52.221Z,84.62
2018-10-07T00:28:21.525Z,85.02
2018-10-07T00:30:50.703Z,84.77
2018-10-07T00:33:20.230Z,84.90
2018-10-07T00:35:49.526Z,84.96
2018-10-07T00:38:18.541Z,84.95
2018-10-07T00:40:48.089Z,85.20
2018-10-07T00:43:17.372Z,85.80
2018-10-07T00:45:46.387Z,85.77
2018-10-07T00:48:15.669Z,86.19
2018-10-07T00:50:45.263Z,86.55
2018-10-07T00:53:14.548Z,86.41
2018-10-07T00:55:44.124Z,87.07
2018-10-07T00:58:13.216Z,86.91
2018-10-07T01:00:42.197Z,87.24
2018-10-07T01:03:11.508Z,86.31
2018-10-07T01:05:41.114Z,86.48
2018-10-07T01:08:10.071Z,86.20
2018-10-07T01:10:39.405Z,86.38
2018-10-07T01:13:08.657Z,86.81
2018-10-07T01:15:38.396Z,86.59
2018-10-07T01:18:07.861Z,86.11
2018-10-07T01:20:37.168Z,86.25
2018-10-07T01:23:05.887Z,86.18
2018-10-07T01:25:35.196Z,86.24
2018-10-07T01:28:04.493Z,86.34
2018-10-07T01:30:33.508Z,86.82
2018-10-07T01:33:02.788Z,86.30
2018-10-07T01:35:32.389Z,85.27
2018-10-07T01:38:01.665Z,84.87
2018-10-07T01:40:30.924Z,84.42
2018-10-07T01:43:01.000Z,84.31
2018-10-07T01:45:30.585Z,84.41
2018-10-07T01:48:00.161Z,83.80
2018-10-07T01:50:29.455Z,83.83
2018-10-07T01:52:58.743Z,84.00
2018-10-07T01:55:28.338Z,84.55
2018-10-07T01:57:57.625Z,85.43
2018-10-07T02:00:27.625Z,84.67
2018-10-07T02:02:56.673Z,84.94
2018-10-07T02:05:27.099Z,85.46
2018-10-07T02:07:56.388Z,86.91
2018-10-07T02:10:25.705Z,86.43
2018-10-07T02:12:54.713Z,85.84
2018-10-07T02:15:24.293Z,86.78
2018-10-07T02:17:53.597Z,86.66
2018-10-07T02:20:23.169Z,86.29
2018-10-07T02:22:52.137Z,85.96
2018-10-07T02:25:21.421Z,85.92
2018-10-07T02:27:50.716Z,85.71
2018-10-07T02:30:20.303Z,85.31
2018-10-07T02:32:49.933Z,85.67
2018-10-07T02:35:19.424Z,86.04
2018-10-07T02:37:48.709Z,85.50
2018-10-07T02:40:17.986Z,86.18
2018-10-07T02:42:47.323Z,84.83
2018-10-07T02:45:16.362Z,83.49
2018-10-07T02:47:45.653Z,83.92
2018-10-07T02:50:14.413Z,84.24
2018-10-07T02:52:45.608Z,83.92
2018-10-07T02:55:14.313Z,84.27
2018-10-07T02:57:43.244Z,84.45
2018-10-07T03:00:12.301Z,85.10
2018-10-07T03:02:41.089Z,84.46
2018-10-07T03:05:10.422Z,84.14
2018-10-07T03:07:39.718Z,83.90
2018-10-07T03:10:09.261Z,84.11
2018-10-07T03:12:38.549Z,84.17
2018-10-07T03:15:07.494Z,83.92
2018-10-07T03:17:36.620Z,83.76
2018-10-07T03:20:05.337Z,83.56
2018-10-07T03:22:34.683Z,84.22
2018-10-07T03:25:03.912Z,84.00
2018-10-07T03:27:33.516Z,82.87
2018-10-07T03:30:02.781Z,83.86
2018-10-07T03:32:32.356Z,82.72
2018-10-07T03:35:01.641Z,83.12
2018-10-07T03:37:31.209Z,83.51
2018-10-07T03:40:00.593Z,83.46
2018-10-07T03:42:30.140Z,83.79
2018-10-07T03:44:59.577Z,83.12
2018-10-07T03:47:28.645Z,83.51
2018-10-07T03:49:57.693Z,82.69
2018-10-07T03:52:28.852Z,83.53
2018-10-07T03:54:57.854Z,82.92
2018-10-07T03:57:27.896Z,82.94
2018-10-07T03:59:57.127Z,82.49
2018-10-07T04:02:27.308Z,82.58
2018-10-07T04:04:56.259Z,83.64
2018-10-07T04:07:25.209Z,83.22
2018-10-07T04:09:54.545Z,82.62
2018-10-07T04:12:23.837Z,82.05
2018-10-07T04:14:53.103Z,82.78
2018-10-07T04:17:22.780Z,81.98
2018-10-07T04:19:52.349Z,81.78
2018-10-07T04:22:21.689Z,82.10
2018-10-07T04:24:50.742Z,81.60
2018-10-07T04:27:20.016Z,81.47
2018-10-07T04:29:49.597Z,81.75
2018-10-07T04:32:18.879Z,81.89
2018-10-07T04:34:47.825Z,81.05
2018-10-07T04:37:16.765Z,80.75
2018-10-07T04:39:46.132Z,81.42
2018-10-07T04:42:15.681Z,80.71
2018-10-07T04:44:44.969Z,80.92
2018-10-07T04:47:14.683Z,80.86
2018-10-07T04:49:43.977Z,80.41
2018-10-07T04:52:13.537Z,80.32
2018-10-07T04:54:43.108Z,80.66
2018-10-07T04:57:12.668Z,81.41
2018-10-07T04:59:41.986Z,81.45
2018-10-07T05:02:11.548Z,81.31
2018-10-07T05:04:40.571Z,80.93
2018-10-07T05:07:09.513Z,79.83
2018-10-07T05:09:38.741Z,79.25
2018-10-07T05:12:07.697Z,79.21
2018-10-07T05:14:36.647Z,79.23
2018-10-07T05:17:05.349Z,79.43
2018-10-07T05:19:34.596Z,79.69
2018-10-07T05:22:03.560Z,79.35
2018-10-07T05:24:33.238Z,80.11
2018-10-07T05:27:02.264Z,79.82
2018-10-07T05:29:31.553Z,80.30
2018-10-07T05:32:00.497Z,81.30
2018-10-07T05:34:30.053Z,80.48
2018-10-07T05:36:59.637Z,80.33
2018-10-07T05:39:29.226Z,80.00
2018-10-07T05:41:58.872Z,79.81
2018-10-07T05:44:28.284Z,79.51
2018-10-07T05:46:57.758Z,79.98
2018-10-07T05:49:28.181Z,80.54
2018-10-07T05:51:57.748Z,80.06
2018-10-07T05:54:28.175Z,79.39
2018-10-07T05:56:57.453Z,79.95
2018-10-07T05:59:27.629Z,79.69
2018-10-07T06:01:56.472Z,80.04
2018-10-07T06:04:25.261Z,79.10
2018-10-07T06:06:54.217Z,79.43
2018-10-07T06:09:23.233Z,79.68
2018-10-07T06:11:52.461Z,79.09
2018-10-07T06:14:21.271Z,79.00
2018-10-07T06:16:50.773Z,79.57
2018-10-07T06:19:20.061Z,79.40
2018-10-07T06:21:49.612Z,79.19
2018-10-07T06:24:18.716Z,78.34
2018-10-07T06:26:47.648Z,77.94
2018-10-07T06:29:16.368Z,78.43
2018-10-07T06:31:45.600Z,78.82
2018-10-07T06:34:14.917Z,78.80
2018-10-07T06:36:44.153Z,78.65
2018-10-07T06:39:13.097Z,77.15
2018-10-07T06:41:42.040Z,76.37
2018-10-07T06:44:11.308Z,75.62
2018-10-07T06:46:40.852Z,74.97
2018-10-07T06:49:10.122Z,74.62
2018-10-07T06:51:39.077Z,74.25
2018-10-07T06:54:09.933Z,73.11
2018-10-07T06:56:39.028Z,72.86
2018-10-07T06:59:08.321Z,73.10
2018-10-07T07:01:37.705Z,71.64
2018-10-07T07:04:06.501Z,71.07
2018-10-07T07:06:36.222Z,70.85
2018-10-07T07:09:05.381Z,70.20
2018-10-07T07:11:34.952Z,69.05
2018-10-07T07:14:04.017Z,67.57
2018-10-07T07:16:33.292Z,67.90
2018-10-07T07:19:02.849Z,67.38
2018-10-07T07:21:32.321Z,66.82
2018-10-07T07:24:01.261Z,66.68
2018-10-07T07:26:30.217Z,65.51
2018-10-07T07:28:59.496Z,65.45
2018-10-07T07:31:28.521Z,65.90
2018-10-07T07:33:57.977Z,65.21
2018-10-07T07:36:28.370Z,64.96
2018-10-07T07:38:57.646Z,64.39
2018-10-07T07:41:28.132Z,63.53
2018-10-07T07:43:57.405Z,62.58
2018-10-07T07:46:28.048Z,61.89
2018-10-07T07:48:57.367Z,63.06
2018-10-07T07:51:28.334Z,63.12
2018-10-07T07:53:58.534Z,63.12
2018-10-07T07:56:28.459Z,61.01
2018-10-07T07:58:58.011Z,61.71
2018-10-07T08:01:28.068Z,61.17
2018-10-07T08:03:56.735Z,60.74
2018-10-07T08:06:26.232Z,60.80
2018-10-07T08:08:55.635Z,61.22
2018-10-07T08:11:25.165Z,60.91
2018-10-07T08:13:54.435Z,59.99
2018-10-07T08:16:23.672Z,59.67
2018-10-07T08:18:53.064Z,60.56
2018-10-07T08:21:22.344Z,60.14
2018-10-07T08:23:51.694Z,59.18
2018-10-07T08:26:21.173Z,58.41
2018-10-07T08:28:50.448Z,58.26
2018-10-07T08:31:19.701Z,57.94
2018-10-07T08:33:49.089Z,58.59
2018-10-07T08:36:18.385Z,58.08
2018-10-07T08:38:47.862Z,58.70
2018-10-07T08:41:17.173Z,58.38
2018-10-07T08:43:46.444Z,58.34
2018-10-07T08:46:15.729Z,57.66
2018-10-07T08:48:45.289Z,56.83
2018-10-07T08:51:14.572Z,57.19
2018-10-07T08:53:44.137Z,57.19
2018-10-07T08:56:13.253Z,56.24
2018-10-07T08:58:42.577Z,55.95
2018-10-07T09:01:23.832Z,55.80
2018-10-07T09:04:05.152Z,54.99
2018-10-07T09:06:46.401Z,55.19
2018-10-07T09:09:15.415Z,55.68
2018-10-07T09:11:44.704Z,54.52
2018-10-07T09:14:14.264Z,54.16
2018-10-07T09:16:43.736Z,53.43
2018-10-07T09:19:13.281Z,52.76
2018-10-07T09:21:42.573Z,52.65
2018-10-07T09:24:11.870Z,53.41
2018-10-07T09:26:41.398Z,52.89
2018-10-07T09:29:10.501Z,51.75
2018-10-07T09:31:39.457Z,52.04
2018-10-07T09:34:08.501Z,52.56
2018-10-07T09:36:38.109Z,51.91
2018-10-07T09:39:06.988Z,51.69
2018-10-07T09:41:36.567Z,51.89
2018-10-07T09:44:05.621Z,50.60
2018-10-07T09:46:34.953Z,50.42
2018-10-07T09:49:03.839Z,50.26
2018-10-07T09:51:33.185Z,50.30
2018-10-07T09:54:02.125Z,49.29
2018-10-07T09:56:31.676Z,49.08
2018-10-07T09:59:01.039Z,50.08
2018-10-07T10:01:30.560Z,49.57
2018-10-07T10:03:59.861Z,49.78
2018-10-07T10:06:29.281Z,49.03
2018-10-07T10:08:58.781Z,48.24
2018-10-07T10:11:28.445Z,48.22
2018-10-07T10:13:57.737Z,48.51
2018-10-07T10:16:27.798Z,48.79
2018-10-07T10:18:57.401Z,48.10
2018-10-07T10:21:26.109Z,46.90
2018-10-07T10:23:55.217Z,45.63
2018-10-07T10:26:24.126Z,46.80
2018-10-07T10:28:52.656Z,45.09
2018-10-07T10:31:21.598Z,44.83
2018-10-07T10:33:50.318Z,45.70
2018-10-07T10:36:19.072Z,46.38
2018-10-07T10:38:47.977Z,47.42
2018-10-07T10:41:16.964Z,46.29
2018-10-07T10:43:45.873Z,46.16
2018-10-07T10:46:15.147Z,45.80
2018-10-07T10:48:44.381Z,46.72
2018-10-07T10:51:13.088Z,44.64
2018-10-07T10:53:42.337Z,43.56
2018-10-07T10:56:11.055Z,44.73
2018-10-07T10:58:40.061Z,45.39
2018-10-07T11:01:09.013Z,44.06
2018-10-07T11:03:38.248Z,45.28
2018-10-07T11:06:07.029Z,44.59
2018-10-07T11:08:36.029Z,45.67
2018-10-07T11:11:04.957Z,44.78
2018-10-07T11:13:33.963Z,44.88
2018-10-07T11:16:03.052Z,44.33
2018-10-07T11:18:32.235Z,43.50
2018-10-07T11:21:01.082Z,42.67
2018-10-07T11:23:30.085Z,42.45
2018-10-07T11:25:59.063Z,41.58
2018-10-07T11:28:28.357Z,41.41
2018-10-07T11:30:57.061Z,41.54
2018-10-07T11:33:26.121Z,42.02
2018-10-07T11:35:55.315Z,41.88
2018-10-07T11:38:24.368Z,40.93
2018-10-07T11:40:53.140Z,41.96
2018-10-07T11:43:22.055Z,41.38
2018-10-07T11:45:51.037Z,40.17
2018-10-07T11:48:19.987Z,40.34
2018-10-07T11:50:48.475Z,40.86
2018-10-07T11:53:18.189Z,40.39
2018-10-07T11:55:47.873Z,39.80
2018-10-07T11:58:17.163Z,40.47
2018-10-07T12:00:46.554Z,40.86
2018-10-07T12:03:15.932Z,40.24
2018-10-07T12:05:45.208Z,41.97
2018-10-07T12:08:14.747Z,40.96
2018-10-07T12:10:44.041Z,40.29
2018-10-07T12:13:13.604Z,40.85
2018-10-07T12:15:43.173Z,41.48
2018-10-07T12:18:11.614Z,40.87
2018-10-07T12:20:40.968Z,40.64
2018-10-07T12:23:10.255Z,39.80
2018-10-07T12:25:39.872Z,39.22
2018-10-07T12:28:09.478Z,39.02
2018-10-07T12:30:39.121Z,39.30
2018-10-07T12:33:08.061Z,40.06
2018-10-07T12:35:37.354Z,38.90
2018-10-07T12:38:06.268Z,39.06
2018-10-07T12:40:35.616Z,38.98
2018-10-07T12:43:04.568Z,37.88
2018-10-07T12:45:33.804Z,38.87
2018-10-07T12:48:03.089Z,40.70
2018-10-07T12:50:32.657Z,40.51
2018-10-07T12:53:01.715Z,39.64
2018-10-07T12:55:31.025Z,39.47
2018-10-07T12:58:00.305Z,39.43
2018-10-07T13:00:29.545Z,39.32
2018-10-07T13:02:58.877Z,38.66
2018-10-07T13:05:29.161Z,39.53
2018-10-07T13:07:58.768Z,39.16
2018-10-07T13:10:29.162Z,39.38
2018-10-07T13:12:58.400Z,38.33
2018-10-07T13:15:29.204Z,38.83
2018-10-07T13:17:58.489Z,38.73
2018-10-07T13:20:29.245Z,40.36
2018-10-07T13:22:58.800Z,39.84
2018-10-07T13:25:29.194Z,39.88
2018-10-07T13:27:58.818Z,39.68
2018-10-07T13:30:29.153Z,39.55
2018-10-07T13:32:58.424Z,40.67
2018-10-07T13:35:29.041Z,40.00
2018-10-07T13:37:58.313Z,40.32
2018-10-07T13:40:29.215Z,40.03
2018-10-07T13:42:58.778Z,40.15
2018-10-07T13:47:57.101Z,40.99
2018-10-07T13:50:26.383Z,40.52
2018-10-07T13:52:55.865Z,40.86
2018-10-07T13:55:24.817Z,40.34
2018-10-07T13:57:54.081Z,40.45
2018-10-07T14:00:23.375Z,40.65
2018-10-07T14:02:52.972Z,39.94
2018-10-07T14:05:22.261Z,39.64
2018-10-07T14:07:51.817Z,40.38
2018-10-07T14:10:21.101Z,40.94
2018-10-07T14:12:50.372Z,40.63
2018-10-07T14:15:19.617Z,41.93
2018-10-07T14:17:49.112Z,42.77
2018-10-07T14:20:18.396Z,43.20
2018-10-07T14:22:47.986Z,42.76
2018-10-07T14:25:17.264Z,43.12
2018-10-07T14:27:59.026Z,44.08
2018-10-07T14:30:29.274Z,44.32
2018-10-07T14:32:58.553Z,45.33
2018-10-07T14:35:29.170Z,45.09
2018-10-07T14:37:58.435Z,44.70
2018-10-07T14:40:29.353Z,44.33
2018-10-07T14:42:59.530Z,44.38
2018-10-07T14:45:34.540Z,44.73
2018-10-07T14:48:03.821Z,45.46
2018-10-07T14:50:33.267Z,46.50
2018-10-07T14:53:02.544Z,46.94
2018-10-07T14:55:32.110Z,47.54
2018-10-07T14:58:01.382Z,47.44
2018-10-07T15:00:31.241Z,48.11
2018-10-07T15:03:00.513Z,47.33
2018-10-07T15:05:30.084Z,47.28
2018-10-07T15:07:59.358Z,47.26
2018-10-07T15:10:29.397Z,46.99
2018-10-07T15:12:58.680Z,45.36
2018-10-07T15:15:29.542Z,46.89
2018-10-07T15:17:58.845Z,46.62
2018-10-07T15:20:28.954Z,46.37
2018-10-07T15:22:58.249Z,46.86
2018-10-07T15:25:27.516Z,47.96
2018-10-07T15:27:57.124Z,48.04
2018-10-07T15:30:26.405Z,48.84
2018-10-07T15:32:55.688Z,48.86
2018-10-07T15:35:25.214Z,48.36
2018-10-07T15:37:54.503Z,48.26
2018-10-07T15:40:24.061Z,48.90
2018-10-07T15:42:53.349Z,48.52
2018-10-07T15:45:22.635Z,48.08
2018-10-07T15:47:51.921Z,48.75
2018-10-07T15:50:21.200Z,48.35
2018-10-07T15:52:50.488Z,48.59
2018-10-07T15:55:19.756Z,48.78
2018-10-07T15:57:48.949Z,49.24
2018-10-07T16:00:18.302Z,48.46
2018-10-07T16:02:47.588Z,49.33
2018-10-07T16:05:16.592Z,49.08
2018-10-07T16:07:46.169Z,49.32
2018-10-07T16:10:15.442Z,49.10
2018-10-07T16:12:45.006Z,50.28
2018-10-07T16:15:14.340Z,50.07
2018-10-07T16:17:43.637Z,50.33
2018-10-07T16:20:12.627Z,50.42
2018-10-07T16:22:41.641Z,50.94
2018-10-07T16:25:11.246Z,51.05
2018-10-07T16:27:40.505Z,51.84
2018-10-07T16:30:09.781Z,51.76
2018-10-07T16:32:39.336Z,52.28
2018-10-07T16:35:08.273Z,52.39
2018-10-07T16:37:37.562Z,53.57
2018-10-07T16:40:06.819Z,53.99
2018-10-07T16:42:36.369Z,53.85
2018-10-07T16:45:05.095Z,53.90
2018-10-07T16:47:34.672Z,54.04
2018-10-07T16:50:03.951Z,54.14
2018-10-07T16:52:33.530Z,54.94
2018-10-07T16:55:03.289Z,55.22
2018-10-07T16:57:32.856Z,55.06
2018-10-07T17:00:02.187Z,55.46
2018-10-07T17:02:31.761Z,56.41
2018-10-07T17:05:00.701Z,57.38
2018-10-07T17:07:30.001Z,58.40
2018-10-07T17:09:59.513Z,58.58
2018-10-07T17:12:29.801Z,58.91
2018-10-07T17:14:59.072Z,59.33
2018-10-07T17:17:29.916Z,59.46
2018-10-07T17:19:59.249Z,60.28
2018-10-07T17:22:29.857Z,60.37
2018-10-07T17:24:59.181Z,60.29
2018-10-07T17:27:29.921Z,61.06
2018-10-07T17:29:59.506Z,60.92
2018-10-07T17:32:29.850Z,61.14
2018-10-07T17:34:59.428Z,62.51
2018-10-07T17:37:29.877Z,61.97
2018-10-07T17:39:59.161Z,62.63
2018-10-07T17:42:29.999Z,62.69
2018-10-07T17:44:59.655Z,62.19
2018-10-07T17:47:29.967Z,62.61
2018-10-07T17:49:59.575Z,62.83
2018-10-07T17:52:29.892Z,63.03
2018-10-07T17:54:59.249Z,62.68
2018-10-07T17:57:29.995Z,62.97
2018-10-07T17:59:59.577Z,63.40
2018-10-07T18:02:29.992Z,62.97
2018-10-07T18:04:59.232Z,63.59
2018-10-07T18:07:29.902Z,63.91
2018-10-07T18:09:59.204Z,63.81
2018-10-07T18:12:30.036Z,64.71
2018-10-07T18:15:00.138Z,64.78
2018-10-07T18:17:58.735Z,65.02
2018-10-07T18:20:36.409Z,65.97
2018-10-07T18:23:05.660Z,65.81
2018-10-07T18:25:34.981Z,65.58
2018-10-07T18:32:01.830Z,66.26
2018-10-07T18:34:39.951Z,67.04
2018-10-07T18:37:09.662Z,67.84
2018-10-07T18:40:01.413Z,67.76
2018-10-07T18:42:33.853Z,68.62
2018-10-07T18:45:03.669Z,68.74
2018-10-07T18:47:33.241Z,69.50
2018-10-07T18:50:02.681Z,69.58
2018-10-07T18:52:31.951Z,69.59
2018-10-07T18:55:01.190Z,69.36
2018-10-07T18:57:30.753Z,69.68
2018-10-07T19:00:00.041Z,70.14
2018-10-07T19:02:30.139Z,70.08
2018-10-07T19:04:59.701Z,70.63
2018-10-07T19:07:30.011Z,70.41
2018-10-07T19:09:59.302Z,70.47
2018-10-07T19:12:30.132Z,70.91
2018-10-07T19:14:59.705Z,71.39
2018-10-07T19:17:29.844Z,71.14
2018-10-07T19:19:59.135Z,71.40
2018-10-07T19:22:30.039Z,71.21
2018-10-07T19:24:59.336Z,71.25
2018-10-07T19:27:29.973Z,71.06
2018-10-07T19:29:59.263Z,70.79
2018-10-07T19:32:28.264Z,70.93
2018-10-07T19:34:57.744Z,70.99
2018-10-07T19:37:26.871Z,71.35
2018-10-07T19:39:56.177Z,71.25
2018-10-07T19:42:25.741Z,71.43
2018-10-07T19:44:55.053Z,71.38
2018-10-07T19:47:24.797Z,71.79
2018-10-07T19:49:54.098Z,72.05
2018-10-07T19:52:23.468Z,72.25
2018-10-07T19:54:52.898Z,72.51
2018-10-07T19:57:21.934Z,72.42
2018-10-07T19:59:51.265Z,72.50
2018-10-07T20:02:20.493Z,72.59
2018-10-07T20:04:49.961Z,73.18
2018-10-07T20:07:19.233Z,72.93
2018-10-07T20:09:48.193Z,72.83
2018-10-07T20:12:17.769Z,72.87
2018-10-07T20:14:47.059Z,73.38
2018-10-07T20:17:16.320Z,73.10
2018-10-07T20:19:45.925Z,73.28
2018-10-07T20:22:15.193Z,73.44
2018-10-07T20:24:44.249Z,74.20
2018-10-07T20:27:13.823Z,74.37
2018-10-07T20:29:43.150Z,74.46
2018-10-07T20:32:12.438Z,74.39
2018-10-07T20:34:42.002Z,75.02
2018-10-07T20:37:11.285Z,75.40
2018-10-07T20:39:40.903Z,74.95
2018-10-07T20:42:10.189Z,75.68
2018-10-07T20:44:39.459Z,76.11
2018-10-07T20:47:08.937Z,76.35
2018-10-07T20:49:38.209Z,76.59
2018-10-07T20:52:07.601Z,76.77
2018-10-07T20:54:36.909Z,77.36
2018-10-07T20:57:06.197Z,77.69
2018-10-07T20:59:35.129Z,77.68
2018-10-07T21:02:04.097Z,77.97
2018-10-07T21:04:33.365Z,77.79
2018-10-07T21:07:02.645Z,77.55
2018-10-07T21:09:32.049Z,77.62
2018-10-07T21:12:01.341Z,77.34
2018-10-07T21:14:30.892Z,77.00
2018-10-07T21:17:00.211Z,77.18
2018-10-07T21:19:30.372Z,77.23
2018-10-07T21:21:59.648Z,77.33
2018-10-07T21:24:30.422Z,77.84
2018-10-07T21:26:59.995Z,78.26
2018-10-07T21:29:30.381Z,78.45
2018-10-07T21:31:59.660Z,79.10
2018-10-07T21:34:30.336Z,79.48
2018-10-07T21:36:59.613Z,80.16
2018-10-07T21:39:30.467Z,80.17
2018-10-07T21:41:59.589Z,80.63
2018-10-07T21:44:30.405Z,80.28
2018-10-07T21:47:00.077Z,80.42
2018-10-07T21:49:30.471Z,80.32
2018-10-07T21:52:00.169Z,80.22
2018-10-07T21:54:30.495Z,80.63
2018-10-07T21:57:00.060Z,80.13
2018-10-07T21:59:30.485Z,80.60
2018-10-07T22:02:00.062Z,80.50
2018-10-07T22:04:29.904Z,80.42
2018-10-07T22:06:59.225Z,80.49
2018-10-07T22:09:29.674Z,80.42
2018-10-07T22:11:59.117Z,79.88
2018-10-07T22:14:28.386Z,80.29
2018-10-07T22:16:57.664Z,80.06
2018-10-07T22:19:27.006Z,80.00
2018-10-07T22:21:56.293Z,79.92
2018-10-07T22:24:26.361Z,80.02
2018-10-07T22:26:55.065Z,79.63
2018-10-07T22:29:24.326Z,79.75
2018-10-07T22:31:53.613Z,79.72
2018-10-07T22:34:22.541Z,79.84
2018-10-07T22:36:52.120Z,79.43
2018-10-07T22:39:21.385Z,79.12
2018-10-07T22:41:50.433Z,79.68
2018-10-07T22:44:19.493Z,79.62
2018-10-07T22:46:48.724Z,79.59
2018-10-07T22:49:18.300Z,79.79
2018-10-07T22:51:47.560Z,79.76
2018-10-07T22:54:17.127Z,79.88
2018-10-07T22:56:46.397Z,79.70
2018-10-07T22:59:15.680Z,79.56
2018-10-07T23:01:45.509Z,79.76
2018-10-07T23:04:15.273Z,80.08
2018-10-07T23:06:44.571Z,79.75
2018-10-07T23:09:13.349Z,79.65
2018-10-07T23:11:42.896Z,79.83
2018-10-07T23:14:12.036Z,79.66
2018-10-07T23:16:41.537Z,79.95
2018-10-07T23:19:10.816Z,79.59
2018-10-07T23:21:40.394Z,79.53
2018-10-07T23:24:09.677Z,79.56
2018-10-07T23:26:38.672Z,79.70
2018-10-07T23:29:08.004Z,80.23
2018-10-07T23:31:37.564Z,80.43
2018-10-07T23:34:06.517Z,80.36
2018-10-07T23:36:35.784Z,80.22
2018-10-07T23:39:04.812Z,80.87
2018-10-07T23:41:33.560Z,80.35
2018-10-07T23:44:02.857Z,80.46
2018-10-07T23:46:32.596Z,80.89
2018-10-07T23:49:01.641Z,80.68
2018-10-07T23:51:30.982Z,80.50
2018-10-07T23:54:00.449Z,80.63
2018-10-07T23:56:30.729Z,80.69
2018-10-07T23:59:00.296Z,81.08
